sensor_id;sensor_type;location;lat;lon;timestamp;P1;durP1;ratioP1;P2;durP2;ratioP2
62258;SDS011;48241;48.824;10.102;2023-02-26T00:00:16;3.65;;;1.90;;
62258;SDS011;48241;48.824;10.102;2023-02-26T00:02:45;2.88;;;1.92;;
62258;SDS011;48241;48.824;10.102;2023-02-26T00:05:12;5.00;;;2.28;;
62258;SDS011;48241;48.824;10.102;2023-02-26T00:07:38;3.28;;;1.90;;
62258;SDS011;48241;48.824;10.102;2023-02-26T00:10:05;3.92;;;2.28;;
62258;SDS011;48241;48.824;10.102;2023-02-26T00:12:32;3.45;;;1.95;;
62258;SDS011;48241;48.824;10.102;2023-02-26T00:14:58;3.55;;;1.77;;
62258;SDS011;48241;48.824;10.102;2023-02-26T00:17:25;3.67;;;2.03;;
62258;SDS011;48241;48.824;10.102;2023-02-26T00:20:09;5.07;;;2.00;;
62258;SDS011;48241;48.824;10.102;2023-02-26T00:22:38;3.72;;;2.00;;
62258;SDS011;48241;48.824;10.102;2023-02-26T00:25:05;5.53;;;2.50;;
62258;SDS011;48241;48.824;10.102;2023-02-26T00:27:31;3.78;;;1.98;;
62258;SDS011;48241;48.824;10.102;2023-02-26T00:29:56;5.63;;;2.00;;
62258;SDS011;48241;48.824;10.102;2023-02-26T00:32:22;4.60;;;2.03;;
62258;SDS011;48241;48.824;10.102;2023-02-26T00:34:48;8.27;;;2.00;;
62258;SDS011;48241;48.824;10.102;2023-02-26T00:40:19;6.50;;;2.20;;
62258;SDS011;48241;48.824;10.102;2023-02-26T00:42:46;5.18;;;1.75;;
62258;SDS011;48241;48.824;10.102;2023-02-26T00:45:12;3.75;;;1.55;;
62258;SDS011;48241;48.824;10.102;2023-02-26T00:52:45;5.53;;;2.25;;
62258;SDS011;48241;48.824;10.102;2023-02-26T00:55:26;2.72;;;1.50;;
62258;SDS011;48241;48.824;10.102;2023-02-26T00:57:51;4.07;;;1.75;;
62258;SDS011;48241;48.824;10.102;2023-02-26T01:00:17;3.13;;;2.00;;
62258;SDS011;48241;48.824;10.102;2023-02-26T01:02:43;5.20;;;1.90;;
62258;SDS011;48241;48.824;10.102;2023-02-26T01:05:11;4.43;;;1.55;;
62258;SDS011;48241;48.824;10.102;2023-02-26T01:07:53;6.20;;;1.90;;
62258;SDS011;48241;48.824;10.102;2023-02-26T01:10:36;3.95;;;1.60;;
62258;SDS011;48241;48.824;10.102;2023-02-26T01:13:02;4.00;;;1.48;;
62258;SDS011;48241;48.824;10.102;2023-02-26T01:15:28;5.88;;;1.50;;
62258;SDS011;48241;48.824;10.102;2023-02-26T01:20:59;5.28;;;1.50;;
62258;SDS011;48241;48.824;10.102;2023-02-26T01:23:30;2.03;;;1.10;;
62258;SDS011;48241;48.824;10.102;2023-02-26T01:26:00;5.57;;;1.40;;
62258;SDS011;48241;48.824;10.102;2023-02-26T01:28:36;2.25;;;1.25;;
62258;SDS011;48241;48.824;10.102;2023-02-26T01:31:02;4.25;;;1.30;;
62258;SDS011;48241;48.824;10.102;2023-02-26T01:36:08;5.88;;;1.30;;
62258;SDS011;48241;48.824;10.102;2023-02-26T01:38:57;3.70;;;1.35;;
62258;SDS011;48241;48.824;10.102;2023-02-26T01:41:32;2.47;;;1.38;;
62258;SDS011;48241;48.824;10.102;2023-02-26T01:44:12;4.38;;;1.60;;
62258;SDS011;48241;48.824;10.102;2023-02-26T01:49:30;4.35;;;1.55;;
62258;SDS011;48241;48.824;10.102;2023-02-26T01:51:57;2.95;;;1.48;;
62258;SDS011;48241;48.824;10.102;2023-02-26T01:54:28;2.08;;;1.20;;
62258;SDS011;48241;48.824;10.102;2023-02-26T01:56:55;3.22;;;1.52;;
62258;SDS011;48241;48.824;10.102;2023-02-26T01:59:29;3.78;;;1.60;;
62258;SDS011;48241;48.824;10.102;2023-02-26T02:01:55;3.33;;;1.90;;
62258;SDS011;48241;48.824;10.102;2023-02-26T02:04:23;4.00;;;1.92;;
62258;SDS011;48241;48.824;10.102;2023-02-26T02:06:50;6.57;;;1.90;;
62258;SDS011;48241;48.824;10.102;2023-02-26T02:09:17;5.00;;;1.98;;
62258;SDS011;48241;48.824;10.102;2023-02-26T02:12:05;6.55;;;1.73;;
62258;SDS011;48241;48.824;10.102;2023-02-26T02:14:49;3.60;;;1.60;;
62258;SDS011;48241;48.824;10.102;2023-02-26T02:30:51;6.35;;;1.63;;
62258;SDS011;48241;48.824;10.102;2023-02-26T02:33:36;4.57;;;1.70;;
62258;SDS011;48241;48.824;10.102;2023-02-26T02:36:34;3.53;;;1.80;;
62258;SDS011;48241;48.824;10.102;2023-02-26T02:39:08;3.40;;;1.50;;
62258;SDS011;48241;48.824;10.102;2023-02-26T02:41:57;5.22;;;1.90;;
62258;SDS011;48241;48.824;10.102;2023-02-26T02:44:34;3.15;;;1.63;;
62258;SDS011;48241;48.824;10.102;2023-02-26T02:47:01;7.50;;;2.03;;
62258;SDS011;48241;48.824;10.102;2023-02-26T02:52:47;4.38;;;1.63;;
62258;SDS011;48241;48.824;10.102;2023-02-26T02:54:53;3.67;;;1.92;;
62258;SDS011;48241;48.824;10.102;2023-02-26T02:57:26;3.83;;;1.63;;
62258;SDS011;48241;48.824;10.102;2023-02-26T02:59:58;6.88;;;1.88;;
62258;SDS011;48241;48.824;10.102;2023-02-26T03:04:58;2.75;;;1.40;;
62258;SDS011;48241;48.824;10.102;2023-02-26T03:07:24;2.28;;;1.27;;
62258;SDS011;48241;48.824;10.102;2023-02-26T03:09:50;3.90;;;1.35;;
62258;SDS011;48241;48.824;10.102;2023-02-26T03:12:16;2.80;;;1.30;;
62258;SDS011;48241;48.824;10.102;2023-02-26T03:14:42;3.85;;;1.30;;
62258;SDS011;48241;48.824;10.102;2023-02-26T03:27:42;2.28;;;1.30;;
62258;SDS011;48241;48.824;10.102;2023-02-26T03:33:04;4.35;;;1.58;;
62258;SDS011;48241;48.824;10.102;2023-02-26T03:35:34;2.63;;;0.98;;
62258;SDS011;48241;48.824;10.102;2023-02-26T03:38:10;4.05;;;1.48;;
62258;SDS011;48241;48.824;10.102;2023-02-26T03:40:42;2.78;;;1.10;;
62258;SDS011;48241;48.824;10.102;2023-02-26T03:43:23;3.50;;;1.27;;
62258;SDS011;48241;48.824;10.102;2023-02-26T03:45:51;4.40;;;1.42;;
62258;SDS011;48241;48.824;10.102;2023-02-26T03:48:23;3.53;;;1.23;;
62258;SDS011;48241;48.824;10.102;2023-02-26T03:50:53;2.13;;;1.20;;
62258;SDS011;48241;48.824;10.102;2023-02-26T03:53:29;5.50;;;1.38;;
62258;SDS011;48241;48.824;10.102;2023-02-26T03:56:02;5.30;;;1.10;;
62258;SDS011;48241;48.824;10.102;2023-02-26T03:58:32;4.60;;;1.40;;
62258;SDS011;48241;48.824;10.102;2023-02-26T04:01:03;3.97;;;1.30;;
62258;SDS011;48241;48.824;10.102;2023-02-26T04:03:34;5.18;;;1.13;;
62258;SDS011;48241;48.824;10.102;2023-02-26T04:06:04;4.82;;;1.50;;
62258;SDS011;48241;48.824;10.102;2023-02-26T04:08:30;4.30;;;1.33;;
62258;SDS011;48241;48.824;10.102;2023-02-26T04:10:57;6.20;;;1.25;;
62258;SDS011;48241;48.824;10.102;2023-02-26T04:13:27;3.78;;;1.30;;
62258;SDS011;48241;48.824;10.102;2023-02-26T04:15:53;3.05;;;1.30;;
62258;SDS011;48241;48.824;10.102;2023-02-26T04:18:18;3.92;;;1.20;;
62258;SDS011;48241;48.824;10.102;2023-02-26T04:20:44;4.93;;;1.42;;
62258;SDS011;48241;48.824;10.102;2023-02-26T04:23:09;3.17;;;1.42;;
62258;SDS011;48241;48.824;10.102;2023-02-26T04:25:35;5.03;;;1.48;;
62258;SDS011;48241;48.824;10.102;2023-02-26T04:28:00;4.03;;;1.38;;
62258;SDS011;48241;48.824;10.102;2023-02-26T04:30:26;6.78;;;1.27;;
62258;SDS011;48241;48.824;10.102;2023-02-26T04:32:52;4.00;;;1.45;;
62258;SDS011;48241;48.824;10.102;2023-02-26T04:35:17;4.60;;;1.33;;
62258;SDS011;48241;48.824;10.102;2023-02-26T04:37:43;2.08;;;1.25;;
62258;SDS011;48241;48.824;10.102;2023-02-26T04:40:08;4.88;;;1.42;;
62258;SDS011;48241;48.824;10.102;2023-02-26T04:42:34;3.00;;;1.40;;
62258;SDS011;48241;48.824;10.102;2023-02-26T04:45:00;3.38;;;1.60;;
62258;SDS011;48241;48.824;10.102;2023-02-26T04:47:25;4.63;;;1.40;;
62258;SDS011;48241;48.824;10.102;2023-02-26T04:49:51;2.45;;;1.42;;
62258;SDS011;48241;48.824;10.102;2023-02-26T04:52:17;2.58;;;1.50;;
62258;SDS011;48241;48.824;10.102;2023-02-26T04:54:42;4.75;;;1.60;;
62258;SDS011;48241;48.824;10.102;2023-02-26T04:57:08;4.28;;;1.88;;
62258;SDS011;48241;48.824;10.102;2023-02-26T04:59:33;2.45;;;1.30;;
62258;SDS011;48241;48.824;10.102;2023-02-26T05:01:59;4.47;;;1.50;;
62258;SDS011;48241;48.824;10.102;2023-02-26T05:04:24;3.13;;;1.50;;
62258;SDS011;48241;48.824;10.102;2023-02-26T05:06:50;2.72;;;1.27;;
62258;SDS011;48241;48.824;10.102;2023-02-26T05:09:15;1.65;;;1.20;;
62258;SDS011;48241;48.824;10.102;2023-02-26T05:11:41;3.20;;;1.48;;
62258;SDS011;48241;48.824;10.102;2023-02-26T05:14:07;3.17;;;1.20;;
62258;SDS011;48241;48.824;10.102;2023-02-26T05:16:32;6.70;;;1.67;;
62258;SDS011;48241;48.824;10.102;2023-02-26T05:18:58;3.78;;;1.50;;
62258;SDS011;48241;48.824;10.102;2023-02-26T05:21:23;3.45;;;1.45;;
62258;SDS011;48241;48.824;10.102;2023-02-26T05:23:49;4.18;;;1.60;;
62258;SDS011;48241;48.824;10.102;2023-02-26T05:26:14;6.90;;;1.50;;
62258;SDS011;48241;48.824;10.102;2023-02-26T05:28:40;6.95;;;1.63;;
62258;SDS011;48241;48.824;10.102;2023-02-26T05:31:09;4.28;;;1.92;;
62258;SDS011;48241;48.824;10.102;2023-02-26T05:33:36;4.60;;;1.40;;
62258;SDS011;48241;48.824;10.102;2023-02-26T05:36:01;4.40;;;1.65;;
62258;SDS011;48241;48.824;10.102;2023-02-26T05:38:27;4.25;;;1.70;;
62258;SDS011;48241;48.824;10.102;2023-02-26T05:40:55;4.25;;;1.70;;
62258;SDS011;48241;48.824;10.102;2023-02-26T05:43:21;5.80;;;2.00;;
62258;SDS011;48241;48.824;10.102;2023-02-26T05:45:48;5.50;;;2.00;;
62258;SDS011;48241;48.824;10.102;2023-02-26T05:48:14;3.58;;;1.63;;
62258;SDS011;48241;48.824;10.102;2023-02-26T05:50:40;4.70;;;1.50;;
62258;SDS011;48241;48.824;10.102;2023-02-26T05:53:05;3.45;;;1.70;;
62258;SDS011;48241;48.824;10.102;2023-02-26T05:55:31;4.47;;;1.40;;
62258;SDS011;48241;48.824;10.102;2023-02-26T05:57:56;4.88;;;1.45;;
62258;SDS011;48241;48.824;10.102;2023-02-26T06:00:22;3.47;;;1.50;;
62258;SDS011;48241;48.824;10.102;2023-02-26T06:02:48;7.63;;;1.70;;
62258;SDS011;48241;48.824;10.102;2023-02-26T06:05:13;3.50;;;1.50;;
62258;SDS011;48241;48.824;10.102;2023-02-26T06:07:39;4.15;;;1.40;;
62258;SDS011;48241;48.824;10.102;2023-02-26T06:10:05;3.80;;;1.45;;
62258;SDS011;48241;48.824;10.102;2023-02-26T06:12:32;4.25;;;1.73;;
62258;SDS011;48241;48.824;10.102;2023-02-26T06:14:58;4.30;;;1.55;;
62258;SDS011;48241;48.824;10.102;2023-02-26T06:17:24;5.53;;;1.30;;
62258;SDS011;48241;48.824;10.102;2023-02-26T06:19:50;3.85;;;1.55;;
62258;SDS011;48241;48.824;10.102;2023-02-26T06:22:16;5.82;;;1.55;;
62258;SDS011;48241;48.824;10.102;2023-02-26T06:24:41;4.65;;;1.60;;
62258;SDS011;48241;48.824;10.102;2023-02-26T06:27:07;4.47;;;1.50;;
62258;SDS011;48241;48.824;10.102;2023-02-26T06:29:33;5.07;;;1.70;;
62258;SDS011;48241;48.824;10.102;2023-02-26T06:31:59;4.13;;;1.35;;
62258;SDS011;48241;48.824;10.102;2023-02-26T06:34:24;4.10;;;1.50;;
62258;SDS011;48241;48.824;10.102;2023-02-26T06:36:50;4.53;;;1.48;;
62258;SDS011;48241;48.824;10.102;2023-02-26T06:39:15;5.05;;;1.70;;
62258;SDS011;48241;48.824;10.102;2023-02-26T06:41:41;8.23;;;1.77;;
62258;SDS011;48241;48.824;10.102;2023-02-26T06:44:06;4.05;;;1.45;;
62258;SDS011;48241;48.824;10.102;2023-02-26T06:46:33;4.13;;;1.88;;
62258;SDS011;48241;48.824;10.102;2023-02-26T06:48:59;7.45;;;1.85;;
62258;SDS011;48241;48.824;10.102;2023-02-26T06:51:28;3.15;;;1.70;;
62258;SDS011;48241;48.824;10.102;2023-02-26T06:53:54;5.10;;;2.10;;
62258;SDS011;48241;48.824;10.102;2023-02-26T06:56:23;7.50;;;1.77;;
62258;SDS011;48241;48.824;10.102;2023-02-26T06:58:48;3.38;;;1.75;;
62258;SDS011;48241;48.824;10.102;2023-02-26T07:01:14;6.88;;;1.90;;
62258;SDS011;48241;48.824;10.102;2023-02-26T07:03:40;5.10;;;1.50;;
62258;SDS011;48241;48.824;10.102;2023-02-26T07:06:06;3.80;;;1.58;;
62258;SDS011;48241;48.824;10.102;2023-02-26T07:08:34;5.28;;;1.67;;
62258;SDS011;48241;48.824;10.102;2023-02-26T07:11:00;2.50;;;1.60;;
62258;SDS011;48241;48.824;10.102;2023-02-26T07:13:25;7.72;;;1.70;;
62258;SDS011;48241;48.824;10.102;2023-02-26T07:15:51;9.02;;;2.10;;
62258;SDS011;48241;48.824;10.102;2023-02-26T07:18:16;3.15;;;1.83;;
62258;SDS011;48241;48.824;10.102;2023-02-26T07:20:42;5.18;;;1.83;;
62258;SDS011;48241;48.824;10.102;2023-02-26T07:23:09;4.57;;;1.60;;
62258;SDS011;48241;48.824;10.102;2023-02-26T07:25:38;3.88;;;1.52;;
62258;SDS011;48241;48.824;10.102;2023-02-26T07:28:04;4.95;;;1.90;;
62258;SDS011;48241;48.824;10.102;2023-02-26T07:30:32;4.38;;;1.83;;
62258;SDS011;48241;48.824;10.102;2023-02-26T07:33:01;3.78;;;1.88;;
62258;SDS011;48241;48.824;10.102;2023-02-26T07:35:30;2.60;;;1.48;;
62258;SDS011;48241;48.824;10.102;2023-02-26T07:37:55;2.38;;;1.60;;
62258;SDS011;48241;48.824;10.102;2023-02-26T07:40:21;2.53;;;1.80;;
62258;SDS011;48241;48.824;10.102;2023-02-26T07:42:46;6.00;;;1.70;;
62258;SDS011;48241;48.824;10.102;2023-02-26T07:45:12;4.68;;;1.98;;
62258;SDS011;48241;48.824;10.102;2023-02-26T07:47:37;6.22;;;2.00;;
62258;SDS011;48241;48.824;10.102;2023-02-26T07:50:03;2.38;;;1.35;;
62258;SDS011;48241;48.824;10.102;2023-02-26T07:52:29;2.95;;;1.42;;
62258;SDS011;48241;48.824;10.102;2023-02-26T07:54:55;4.20;;;1.60;;
62258;SDS011;48241;48.824;10.102;2023-02-26T07:57:20;3.88;;;1.63;;
62258;SDS011;48241;48.824;10.102;2023-02-26T07:59:46;6.25;;;1.98;;
62258;SDS011;48241;48.824;10.102;2023-02-26T08:02:11;2.08;;;1.20;;
62258;SDS011;48241;48.824;10.102;2023-02-26T08:04:40;2.42;;;1.45;;
62258;SDS011;48241;48.824;10.102;2023-02-26T08:07:06;5.35;;;1.80;;
62258;SDS011;48241;48.824;10.102;2023-02-26T08:09:32;2.80;;;1.20;;
62258;SDS011;48241;48.824;10.102;2023-02-26T08:12:00;1.67;;;1.17;;
62258;SDS011;48241;48.824;10.102;2023-02-26T08:14:26;4.70;;;1.50;;
62258;SDS011;48241;48.824;10.102;2023-02-26T08:16:51;3.17;;;1.60;;
62258;SDS011;48241;48.824;10.102;2023-02-26T08:19:17;3.95;;;1.65;;
62258;SDS011;48241;48.824;10.102;2023-02-26T08:21:43;5.97;;;1.80;;
62258;SDS011;48241;48.824;10.102;2023-02-26T08:24:09;2.35;;;1.35;;
62258;SDS011;48241;48.824;10.102;2023-02-26T08:26:36;3.50;;;1.70;;
62258;SDS011;48241;48.824;10.102;2023-02-26T08:29:02;2.92;;;1.50;;
62258;SDS011;48241;48.824;10.102;2023-02-26T08:31:29;3.97;;;1.35;;
62258;SDS011;48241;48.824;10.102;2023-02-26T08:33:58;4.28;;;1.50;;
62258;SDS011;48241;48.824;10.102;2023-02-26T08:36:24;4.07;;;1.27;;
62258;SDS011;48241;48.824;10.102;2023-02-26T08:38:50;1.80;;;1.17;;
62258;SDS011;48241;48.824;10.102;2023-02-26T08:41:16;2.08;;;1.20;;
62258;SDS011;48241;48.824;10.102;2023-02-26T08:43:42;4.85;;;1.60;;
62258;SDS011;48241;48.824;10.102;2023-02-26T08:46:08;2.42;;;1.27;;
62258;SDS011;48241;48.824;10.102;2023-02-26T08:48:33;1.98;;;1.38;;
62258;SDS011;48241;48.824;10.102;2023-02-26T08:50:59;3.13;;;1.30;;
62258;SDS011;48241;48.824;10.102;2023-02-26T08:53:24;2.58;;;1.40;;
62258;SDS011;48241;48.824;10.102;2023-02-26T08:55:51;4.25;;;1.60;;
62258;SDS011;48241;48.824;10.102;2023-02-26T08:58:17;3.15;;;1.20;;
62258;SDS011;48241;48.824;10.102;2023-02-26T09:00:43;3.28;;;1.98;;
62258;SDS011;48241;48.824;10.102;2023-02-26T09:03:09;3.63;;;1.70;;
62258;SDS011;48241;48.824;10.102;2023-02-26T09:05:35;4.68;;;1.60;;
62258;SDS011;48241;48.824;10.102;2023-02-26T09:08:00;2.30;;;1.45;;
62258;SDS011;48241;48.824;10.102;2023-02-26T09:10:26;1.23;;;1.13;;
62258;SDS011;48241;48.824;10.102;2023-02-26T09:12:52;5.32;;;1.30;;
62258;SDS011;48241;48.824;10.102;2023-02-26T09:15:18;3.50;;;1.90;;
62258;SDS011;48241;48.824;10.102;2023-02-26T09:17:44;4.22;;;2.38;;
62258;SDS011;48241;48.824;10.102;2023-02-26T09:20:11;4.80;;;2.60;;
62258;SDS011;48241;48.824;10.102;2023-02-26T09:22:38;6.05;;;2.00;;
62258;SDS011;48241;48.824;10.102;2023-02-26T09:25:03;3.22;;;1.80;;
62258;SDS011;48241;48.824;10.102;2023-02-26T09:27:30;4.22;;;1.80;;
62258;SDS011;48241;48.824;10.102;2023-02-26T09:29:56;2.83;;;1.60;;
62258;SDS011;48241;48.824;10.102;2023-02-26T09:32:22;3.45;;;1.92;;
62258;SDS011;48241;48.824;10.102;2023-02-26T09:34:48;2.25;;;1.77;;
62258;SDS011;48241;48.824;10.102;2023-02-26T09:37:15;5.75;;;1.77;;
62258;SDS011;48241;48.824;10.102;2023-02-26T09:39:40;3.47;;;1.52;;
62258;SDS011;48241;48.824;10.102;2023-02-26T09:45:01;3.95;;;2.30;;
62258;SDS011;48241;48.824;10.102;2023-02-26T09:47:33;3.55;;;2.13;;
62258;SDS011;48241;48.824;10.102;2023-02-26T09:50:21;5.10;;;2.00;;
62258;SDS011;48241;48.824;10.102;2023-02-26T09:58:04;2.47;;;1.20;;
62258;SDS011;48241;48.824;10.102;2023-02-26T10:00:40;2.03;;;1.58;;
62258;SDS011;48241;48.824;10.102;2023-02-26T10:03:18;1.58;;;1.48;;
62258;SDS011;48241;48.824;10.102;2023-02-26T10:06:11;2.60;;;1.77;;
62258;SDS011;48241;48.824;10.102;2023-02-26T10:14:38;3.63;;;1.80;;
62258;SDS011;48241;48.824;10.102;2023-02-26T10:17:15;4.57;;;2.00;;
62258;SDS011;48241;48.824;10.102;2023-02-26T10:20:10;9.43;;;3.38;;
62258;SDS011;48241;48.824;10.102;2023-02-26T10:25:43;3.13;;;1.50;;
62258;SDS011;48241;48.824;10.102;2023-02-26T10:31:06;2.75;;;1.30;;
62258;SDS011;48241;48.824;10.102;2023-02-26T10:33:46;3.30;;;1.63;;
62258;SDS011;48241;48.824;10.102;2023-02-26T10:39:00;1.80;;;1.30;;
62258;SDS011;48241;48.824;10.102;2023-02-26T10:41:59;1.80;;;1.30;;
62258;SDS011;48241;48.824;10.102;2023-02-26T10:47:33;2.83;;;1.48;;
62258;SDS011;48241;48.824;10.102;2023-02-26T10:50:21;2.03;;;1.17;;
62258;SDS011;48241;48.824;10.102;2023-02-26T10:58:28;2.90;;;1.17;;
62258;SDS011;48241;48.824;10.102;2023-02-26T11:00:56;1.70;;;0.95;;
62258;SDS011;48241;48.824;10.102;2023-02-26T11:03:30;3.15;;;1.77;;
62258;SDS011;48241;48.824;10.102;2023-02-26T11:05:58;2.47;;;1.58;;
62258;SDS011;48241;48.824;10.102;2023-02-26T11:08:32;2.80;;;1.60;;
62258;SDS011;48241;48.824;10.102;2023-02-26T11:11:10;0.82;;;0.82;;
62258;SDS011;48241;48.824;10.102;2023-02-26T11:13:55;2.33;;;1.45;;
62258;SDS011;48241;48.824;10.102;2023-02-26T11:16:21;1.88;;;1.52;;
62258;SDS011;48241;48.824;10.102;2023-02-26T11:18:47;1.90;;;1.50;;
62258;SDS011;48241;48.824;10.102;2023-02-26T11:21:18;2.25;;;1.60;;
62258;SDS011;48241;48.824;10.102;2023-02-26T11:23:48;1.20;;;1.05;;
62258;SDS011;48241;48.824;10.102;2023-02-26T11:26:36;2.95;;;1.70;;
62258;SDS011;48241;48.824;10.102;2023-02-26T11:29:03;1.60;;;1.48;;
62258;SDS011;48241;48.824;10.102;2023-02-26T11:31:30;3.10;;;1.50;;
62258;SDS011;48241;48.824;10.102;2023-02-26T11:36:30;2.05;;;1.50;;
62258;SDS011;48241;48.824;10.102;2023-02-26T11:42:09;3.22;;;1.63;;
62258;SDS011;48241;48.824;10.102;2023-02-26T11:44:48;1.38;;;1.27;;
62258;SDS011;48241;48.824;10.102;2023-02-26T11:47:20;1.63;;;1.25;;
62258;SDS011;48241;48.824;10.102;2023-02-26T11:49:52;1.90;;;1.48;;
62258;SDS011;48241;48.824;10.102;2023-02-26T11:52:44;2.13;;;1.40;;
62258;SDS011;48241;48.824;10.102;2023-02-26T11:55:51;1.00;;;0.90;;
62258;SDS011;48241;48.824;10.102;2023-02-26T11:58:25;2.88;;;1.20;;
62258;SDS011;48241;48.824;10.102;2023-02-26T12:01:09;1.50;;;1.00;;
62258;SDS011;48241;48.824;10.102;2023-02-26T12:03:38;1.10;;;1.00;;
62258;SDS011;48241;48.824;10.102;2023-02-26T12:06:19;1.85;;;1.05;;
62258;SDS011;48241;48.824;10.102;2023-02-26T12:08:48;1.40;;;1.10;;
62258;SDS011;48241;48.824;10.102;2023-02-26T12:11:36;1.20;;;0.90;;
62258;SDS011;48241;48.824;10.102;2023-02-26T12:17:06;3.53;;;1.73;;
62258;SDS011;48241;48.824;10.102;2023-02-26T12:20:11;1.33;;;1.10;;
62258;SDS011;48241;48.824;10.102;2023-02-26T12:31:45;1.95;;;1.27;;
62258;SDS011;48241;48.824;10.102;2023-02-26T12:34:29;1.73;;;0.98;;
62258;SDS011;48241;48.824;10.102;2023-02-26T12:37:08;1.27;;;1.00;;
62258;SDS011;48241;48.824;10.102;2023-02-26T12:51:21;0.88;;;0.77;;
62258;SDS011;48241;48.824;10.102;2023-02-26T13:04:55;1.40;;;1.05;;
62258;SDS011;48241;48.824;10.102;2023-02-26T13:16:11;0.70;;;0.40;;
62258;SDS011;48241;48.824;10.102;2023-02-26T13:19:04;1.02;;;0.80;;
62258;SDS011;48241;48.824;10.102;2023-02-26T13:21:34;2.08;;;0.60;;
62258;SDS011;48241;48.824;10.102;2023-02-26T13:26:52;1.17;;;0.85;;
62258;SDS011;48241;48.824;10.102;2023-02-26T13:29:26;0.70;;;0.50;;
62258;SDS011;48241;48.824;10.102;2023-02-26T13:31:56;1.23;;;0.70;;
62258;SDS011;48241;48.824;10.102;2023-02-26T13:37:07;1.30;;;0.90;;
62258;SDS011;48241;48.824;10.102;2023-02-26T13:43:01;2.60;;;1.33;;
62258;SDS011;48241;48.824;10.102;2023-02-26T13:48:56;2.38;;;1.25;;
62258;SDS011;48241;48.824;10.102;2023-02-26T13:59:51;1.83;;;0.75;;
62258;SDS011;48241;48.824;10.102;2023-02-26T14:04:53;2.28;;;0.98;;
62258;SDS011;48241;48.824;10.102;2023-02-26T14:10:43;1.90;;;1.00;;
62258;SDS011;48241;48.824;10.102;2023-02-26T14:13:13;2.38;;;1.20;;
62258;SDS011;48241;48.824;10.102;2023-02-26T14:21:47;1.90;;;0.80;;
62258;SDS011;48241;48.824;10.102;2023-02-26T14:27:06;0.70;;;0.60;;
62258;SDS011;48241;48.824;10.102;2023-02-26T14:29:37;1.20;;;0.70;;
62258;SDS011;48241;48.824;10.102;2023-02-26T14:34:36;1.45;;;1.08;;
62258;SDS011;48241;48.824;10.102;2023-02-26T14:37:14;6.75;;;2.55;;
62258;SDS011;48241;48.824;10.102;2023-02-26T14:40:18;7.63;;;2.83;;
62258;SDS011;48241;48.824;10.102;2023-02-26T14:42:47;2.05;;;0.70;;
62258;SDS011;48241;48.824;10.102;2023-02-26T14:45:20;1.75;;;1.35;;
62258;SDS011;48241;48.824;10.102;2023-02-26T14:47:53;3.83;;;1.67;;
62258;SDS011;48241;48.824;10.102;2023-02-26T14:50:20;4.80;;;1.30;;
62258;SDS011;48241;48.824;10.102;2023-02-26T14:58:48;2.45;;;1.08;;
62258;SDS011;48241;48.824;10.102;2023-02-26T15:18:53;2.20;;;1.20;;
62258;SDS011;48241;48.824;10.102;2023-02-26T15:21:34;1.13;;;0.70;;
62258;SDS011;48241;48.824;10.102;2023-02-26T15:24:10;1.95;;;0.90;;
62258;SDS011;48241;48.824;10.102;2023-02-26T15:26:43;1.75;;;0.82;;
62258;SDS011;48241;48.824;10.102;2023-02-26T15:29:23;3.22;;;1.00;;
62258;SDS011;48241;48.824;10.102;2023-02-26T15:31:54;1.67;;;0.80;;
62258;SDS011;48241;48.824;10.102;2023-02-26T15:34:27;1.65;;;0.98;;
62258;SDS011;48241;48.824;10.102;2023-02-26T15:36:55;1.95;;;1.05;;
62258;SDS011;48241;48.824;10.102;2023-02-26T15:39:22;2.72;;;1.00;;
62258;SDS011;48241;48.824;10.102;2023-02-26T15:41:49;1.40;;;0.88;;
62258;SDS011;48241;48.824;10.102;2023-02-26T15:44:21;2.17;;;0.82;;
62258;SDS011;48241;48.824;10.102;2023-02-26T15:46:56;2.90;;;1.50;;
62258;SDS011;48241;48.824;10.102;2023-02-26T15:49:44;4.22;;;1.77;;
62258;SDS011;48241;48.824;10.102;2023-02-26T15:52:16;2.20;;;0.95;;
62258;SDS011;48241;48.824;10.102;2023-02-26T15:54:48;5.15;;;1.77;;
62258;SDS011;48241;48.824;10.102;2023-02-26T15:57:17;1.37;;;0.80;;
62258;SDS011;48241;48.824;10.102;2023-02-26T15:59:45;1.77;;;1.10;;
62258;SDS011;48241;48.824;10.102;2023-02-26T16:02:17;4.13;;;1.20;;
62258;SDS011;48241;48.824;10.102;2023-02-26T16:04:51;2.92;;;0.82;;
62258;SDS011;48241;48.824;10.102;2023-02-26T16:07:19;4.25;;;0.82;;
62258;SDS011;48241;48.824;10.102;2023-02-26T16:09:46;2.40;;;0.80;;
62258;SDS011;48241;48.824;10.102;2023-02-26T16:14:45;0.80;;;0.60;;
62258;SDS011;48241;48.824;10.102;2023-02-26T16:17:39;2.53;;;1.27;;
62258;SDS011;48241;48.824;10.102;2023-02-26T16:20:13;1.98;;;0.90;;
62258;SDS011;48241;48.824;10.102;2023-02-26T16:27:58;1.85;;;1.05;;
62258;SDS011;48241;48.824;10.102;2023-02-26T16:30:36;1.55;;;1.02;;
62258;SDS011;48241;48.824;10.102;2023-02-26T16:33:03;1.77;;;0.88;;
62258;SDS011;48241;48.824;10.102;2023-02-26T16:35:41;3.63;;;0.95;;
62258;SDS011;48241;48.824;10.102;2023-02-26T16:38:11;3.83;;;1.20;;
62258;SDS011;48241;48.824;10.102;2023-02-26T16:40:56;2.28;;;1.40;;
62258;SDS011;48241;48.824;10.102;2023-02-26T16:46:02;2.90;;;1.20;;
62258;SDS011;48241;48.824;10.102;2023-02-26T16:48:30;1.98;;;1.00;;
62258;SDS011;48241;48.824;10.102;2023-02-26T16:51:05;1.70;;;1.00;;
62258;SDS011;48241;48.824;10.102;2023-02-26T16:53:36;0.98;;;0.80;;
62258;SDS011;48241;48.824;10.102;2023-02-26T16:56:14;5.90;;;2.17;;
62258;SDS011;48241;48.824;10.102;2023-02-26T16:58:50;3.58;;;1.77;;
62258;SDS011;48241;48.824;10.102;2023-02-26T17:01:29;2.20;;;1.30;;
62258;SDS011;48241;48.824;10.102;2023-02-26T17:04:03;2.65;;;0.98;;
62258;SDS011;48241;48.824;10.102;2023-02-26T17:06:30;4.15;;;1.13;;
62258;SDS011;48241;48.824;10.102;2023-02-26T17:08:57;3.25;;;1.60;;
62258;SDS011;48241;48.824;10.102;2023-02-26T17:11:25;3.42;;;1.60;;
62258;SDS011;48241;48.824;10.102;2023-02-26T17:16:46;5.32;;;2.30;;
62258;SDS011;48241;48.824;10.102;2023-02-26T17:19:13;5.10;;;2.30;;
62258;SDS011;48241;48.824;10.102;2023-02-26T17:21:43;5.72;;;2.05;;
62258;SDS011;48241;48.824;10.102;2023-02-26T17:24:31;3.40;;;1.13;;
62258;SDS011;48241;48.824;10.102;2023-02-26T17:27:00;3.42;;;1.45;;
62258;SDS011;48241;48.824;10.102;2023-02-26T17:31:58;3.65;;;1.77;;
62258;SDS011;48241;48.824;10.102;2023-02-26T17:34:24;4.20;;;1.63;;
62258;SDS011;48241;48.824;10.102;2023-02-26T17:36:55;2.38;;;1.02;;
62258;SDS011;48241;48.824;10.102;2023-02-26T17:39:21;1.88;;;1.10;;
62258;SDS011;48241;48.824;10.102;2023-02-26T17:41:47;2.60;;;1.00;;
62258;SDS011;48241;48.824;10.102;2023-02-26T17:44:13;2.25;;;1.25;;
62258;SDS011;48241;48.824;10.102;2023-02-26T17:46:38;1.52;;;0.88;;
62258;SDS011;48241;48.824;10.102;2023-02-26T17:49:04;3.45;;;1.10;;
62258;SDS011;48241;48.824;10.102;2023-02-26T17:51:30;1.60;;;0.93;;
62258;SDS011;48241;48.824;10.102;2023-02-26T17:53:55;2.10;;;0.80;;
62258;SDS011;48241;48.824;10.102;2023-02-26T17:56:25;1.98;;;0.80;;
62258;SDS011;48241;48.824;10.102;2023-02-26T17:58:53;2.30;;;1.08;;
62258;SDS011;48241;48.824;10.102;2023-02-26T18:01:19;1.75;;;1.08;;
62258;SDS011;48241;48.824;10.102;2023-02-26T18:03:47;2.38;;;0.77;;
62258;SDS011;48241;48.824;10.102;2023-02-26T18:06:13;2.35;;;1.10;;
62258;SDS011;48241;48.824;10.102;2023-02-26T18:08:40;1.52;;;0.80;;
62258;SDS011;48241;48.824;10.102;2023-02-26T18:11:06;1.98;;;0.93;;
62258;SDS011;48241;48.824;10.102;2023-02-26T18:13:36;1.63;;;0.88;;
62258;SDS011;48241;48.824;10.102;2023-02-26T18:16:04;1.50;;;0.80;;